Main page
METAR-TAF:

METAR-TAF

Airports :

Wiener Neustadt East Airport

Wiener Neustadt, Austria

latitude: 47-50-36N, longitude: 016-15-29E, elevation: 272 m

Current weather observation

The report was made 33 minutes ago, at 10:00 UTC
Wind 3 kt from the West
Temperature
Pressure
Visibility: 3200 m
mist

METAR: LOAN 061000Z 27003KT 3200 BR SCT005ST OVC010ST

Time: 11:33 (10:33 UTC)

Forecast

The report was made 2 hours and 33 minutes ago, at 08:00 UTC
Forecast valid from 06 at 09 UTC to 06 at 18 UTC
Wind 3 kt from the West/Southwest
Visibility: 3200 m
Scattered clouds at a height of 500 ft
Overcast at a height of 1000 ft
mist
Temporary
from 06 at 09 UTC to 06 at 18 UTC
Wind 3 kt from the South
Visibility: 7000 m
Broken clouds at a height of 1800 ft
Probability 40% :
Temporary
from 06 at 12 UTC to 06 at 16 UTC
Scattered clouds at a height of 2000 ft

TAF: LOAN 060800Z 0609/0618 25003KT 3200 BR SCT005 OVC010 TEMPO 0609/0618 18003KT 7000 NSW BKN018 PROB40 TEMPO 0612/0616 SCT020

Weather observations and forecasts of more than 4000 airports (METAR and TAF reports).

The available stations are represented by yellow and red dots on the map.

Hover mouse over dot to see the name of the station.

Then click to see weather observations and forecasts.

To change the map : click on the green buttons with a black cross to zoom in, on the green button with a dash to zoom out, or on the green arrows for adjacent maps.


METAR-TAF: